Time;durP1;ratioP1;P1;durP2;ratioP2;P2;SDS_P1;SDS_P2;PMS_P1;PMS_P2;Temp;Humidity;BMP_temperature;BMP_pressure;BME280_temperature;BME280_humidity;BME280_pressure;Samples;Min_cycle;Max_cycle;Signal;HPM_P1;HPM_P2
2022/11/03 00:01:10;;;;;;;8.60;3.90;;;;;;;17.47;51.89;95182.66;4919357;29;20200;-84
2022/11/03 00:03:37;;;;;;;6.67;4.37;;;;;;;17.17;51.99;95131.72;4920189;29;20374;-84
2022/11/03 00:06:05;;;;;;;5.60;4.33;;;;;;;17.48;52.09;95186.06;4918114;29;20283;-85
2022/11/03 00:08:33;;;;;;;7.00;4.20;;;;;;;17.47;51.94;95185.25;4897442;29;20188;-84
2022/11/03 00:11:09;;;;;;;6.83;4.00;;;;;;;17.38;51.77;95170.75;4897212;29;20234;-85
2022/11/03 00:13:37;;;;;;;8.00;4.10;;;;;;;17.36;51.88;95166.72;4897025;29;20188;-83
2022/11/03 00:16:04;;;;;;;7.43;4.20;;;;;;;17.48;51.92;95186.84;4900912;29;20206;-85
2022/11/03 00:18:33;;;;;;;7.93;4.30;;;;;;;17.50;52.07;95191.88;4915778;29;20191;-83
2022/11/03 00:21:01;;;;;;;5.30;3.83;;;;;;;17.51;51.78;95193.50;4914184;29;20243;-87
2022/11/03 00:23:30;;;;;;;5.43;4.10;;;;;;;17.13;51.67;95136.44;4915491;29;20203;-85
2022/11/03 00:26:04;;;;;;;3.50;3.20;;;;;;;17.52;51.87;95195.09;4915401;29;20230;-83
2022/11/03 00:28:32;;;;;;;8.63;4.10;;;;;;;17.53;51.89;95191.56;4897657;29;20193;-86
2022/11/03 00:31:00;;;;;;;5.53;4.20;;;;;;;17.45;52.03;95176.88;4902770;29;20243;-82
2022/11/03 00:33:27;;;;;;;4.77;3.70;;;;;;;17.56;51.77;95193.78;4915960;29;20199;-85
2022/11/03 00:35:59;;;;;;;3.90;3.53;;;;;;;17.48;51.97;95181.69;4915927;29;20191;-83
2022/11/03 00:38:26;;;;;;;8.53;3.67;;;;;;;17.56;52.01;95193.78;4915002;29;20206;-84
2022/11/03 00:40:56;;;;;;;6.37;4.00;;;;;;;17.58;52.10;95185.88;4916387;29;20207;-82
2022/11/03 00:43:24;;;;;;;8.33;4.07;;;;;;;17.55;51.96;95182.63;4917408;29;20315;-83
2022/11/03 00:45:51;;;;;;;7.83;3.77;;;;;;;17.28;52.07;95142.53;4915629;29;20582;-82
2022/11/03 00:48:30;;;;;;;8.10;3.43;;;;;;;17.58;52.08;95193.63;4917155;29;20195;-84
2022/11/03 00:51:09;;;;;;;9.07;4.00;;;;;;;17.59;52.04;95195.25;4917384;29;20262;-81
2022/11/03 00:53:38;;;;;;;5.13;3.93;;;;;;;17.60;52.04;95199.44;4920180;29;20198;-82
2022/11/03 00:56:06;;;;;;;8.47;4.17;;;;;;;17.53;52.07;95183.81;4921440;29;20220;-82
2022/11/03 00:58:33;;;;;;;6.23;4.33;;;;;;;17.29;52.17;95145.91;4920822;29;20198;-84
2022/11/03 01:01:02;;;;;;;9.20;4.07;;;;;;;17.59;52.13;95200.41;4919196;29;20203;-82
2022/11/03 01:06:48;;;;;;;7.27;4.10;;;;;;;17.52;52.24;95180.38;4917765;29;20211;-84
2022/11/03 01:06:49;;;;;;;5.47;3.87;;;;;;;17.58;52.33;95196.22;4918040;29;20259;-84
2022/11/03 01:09:15;;;;;;;9.47;4.43;;;;;;;17.58;52.33;95196.22;4918609;29;20203;-85
2022/11/03 01:11:44;;;;;;;7.27;3.63;;;;;;;17.48;52.23;95178.31;4917872;29;20195;-84
2022/11/03 01:14:13;;;;;;;6.97;4.03;;;;;;;17.55;52.31;95197.34;4918309;29;20196;-85
2022/11/03 01:16:40;;;;;;;6.37;3.90;;;;;;;17.54;52.28;95198.34;4898082;29;20204;-83
2022/11/03 01:19:07;;;;;;;8.37;4.40;;;;;;;17.35;52.33;95163.31;4898996;29;20200;-85
2022/11/03 01:21:36;;;;;;;9.80;4.30;;;;;;;17.53;52.55;95197.53;4901692;29;20229;-86
2022/11/03 01:24:04;;;;;;;4.43;3.53;;;;;;;17.40;52.36;95184.34;4900346;29;20229;-81
2022/11/03 01:26:32;;;;;;;6.03;4.47;;;;;;;17.48;52.39;95188.66;4902461;29;20287;-80
2022/11/03 01:29:00;;;;;;;6.67;4.13;;;;;;;17.51;52.53;95202.06;4902932;29;20226;-83
2022/11/03 01:31:28;;;;;;;5.70;3.87;;;;;;;17.38;52.41;95175.91;4897945;29;20227;-86
2022/11/03 01:33:56;;;;;;;5.77;3.77;;;;;;;17.39;52.55;95176.72;4900326;29;20196;-86
2022/11/03 01:36:23;;;;;;;7.37;4.40;;;;;;;17.50;52.46;95191.88;4900649;29;20198;-87
2022/11/03 01:38:51;;;;;;;9.20;4.47;;;;;;;17.44;52.42;95184.78;4900026;29;20200;-84
2022/11/03 01:41:22;;;;;;;8.10;3.80;;;;;;;17.42;52.44;95181.56;4900355;29;20191;-89
2022/11/03 01:43:51;;;;;;;6.50;4.07;;;;;;;17.40;52.73;95178.31;4900406;29;20188;-83
2022/11/03 01:46:23;;;;;;;5.43;4.47;;;;;;;17.47;52.46;95195.59;4900316;29;20196;-89
2022/11/03 01:48:57;;;;;;;8.77;3.97;;;;;;;17.31;52.46;95167.22;4901018;29;20272;-86
2022/11/03 01:51:26;;;;;;;5.03;3.90;;;;;;;17.46;52.58;95198.38;4901534;29;20223;-87
2022/11/03 01:53:59;;;;;;;8.60;4.57;;;;;;;17.45;52.68;95197.56;4912354;29;20195;-86
2022/11/03 01:56:27;;;;;;;6.03;4.30;;;;;;;17.39;52.77;95187.88;4919474;29;20277;-88
2022/11/03 01:58:55;;;;;;;5.80;3.90;;;;;;;17.37;52.85;95194.19;4919835;29;20199;-84
2022/11/03 02:01:22;;;;;;;7.67;4.50;;;;;;;17.33;52.78;95190.34;4922833;29;20218;-82
2022/11/03 02:04:00;;;;;;;5.93;4.17;;;;;;;17.42;52.88;95210.00;4926072;29;20448;-87
2022/11/03 02:06:29;;;;;;;6.27;3.93;;;;;;;17.41;52.81;95211.78;4928113;29;20846;-83
2022/11/03 02:09:02;;;;;;;7.37;4.40;;;;;;;17.40;52.99;95214.53;4926258;29;20203;-86
2022/11/03 02:14:14;;;;;;;7.20;4.73;;;;;;;17.36;53.06;95208.91;4926531;29;20290;-82
2022/11/03 02:16:44;;;;;;;7.93;4.57;;;;;;;17.15;53.14;95175.03;4927503;29;20188;-84
2022/11/03 02:19:20;;;;;;;8.50;4.67;;;;;;;17.33;53.15;95209.22;4930738;29;20196;-84
2022/11/03 02:22:03;;;;;;;5.47;4.20;;;;;;;17.31;53.23;95200.81;4933572;29;20241;-87
2022/11/03 02:24:43;;;;;;;7.67;5.13;;;;;;;17.25;53.51;95201.50;4932310;29;20202;-85
2022/11/03 02:27:11;;;;;;;7.20;4.80;;;;;;;17.10;53.54;95182.47;4909350;29;20210;-85
2022/11/03 02:29:39;;;;;;;8.50;5.23;;;;;;;17.18;53.50;95196.16;4901948;29;20196;-85
2022/11/03 02:32:11;;;;;;;5.43;4.83;;;;;;;17.19;53.60;95197.81;4904545;29;20208;-89
2022/11/03 02:34:43;;;;;;;8.37;4.77;;;;;;;17.16;53.67;95192.97;4906682;29;20203;-85
2022/11/03 02:37:15;;;;;;;9.63;4.50;;;;;;;16.87;53.84;95153.94;4927039;29;20206;-86
2022/11/03 02:39:46;;;;;;;9.20;5.03;;;;;;;17.19;53.79;95202.97;4931067;29;20203;-86
2022/11/03 02:42:15;;;;;;;7.77;4.90;;;;;;;17.18;53.92;95203.13;4923829;29;20210;-87
2022/11/03 02:44:44;;;;;;;10.93;5.53;;;;;;;16.98;54.21;95167.31;4919970;29;20210;-85
2022/11/03 02:47:14;;;;;;;7.60;5.00;;;;;;;17.13;53.86;95193.28;4921007;29;20203;-86
2022/11/03 02:49:45;;;;;;;8.50;5.23;;;;;;;17.13;53.99;95195.06;4920573;29;20188;-84
2022/11/03 02:52:35;;;;;;;7.63;4.70;;;;;;;17.03;54.23;95188.31;4918581;29;20192;-85
2022/11/03 02:55:06;;;;;;;8.73;4.70;;;;;;;17.10;53.93;95201.38;4918068;29;20203;-86
2022/11/03 02:57:42;;;;;;;6.53;4.83;;;;;;;16.86;54.07;95168.63;4918094;29;20199;-83
2022/11/03 03:00:12;;;;;;;12.00;5.20;;;;;;;17.08;54.20;95205.09;4920505;29;20215;-85
2022/11/03 03:02:47;;;;;;;8.00;5.07;;;;;;;17.07;54.28;95193.97;4920230;29;20582;-86
2022/11/03 03:05:17;;;;;;;9.20;5.17;;;;;;;16.97;54.18;95188.97;4919441;29;20765;-85
2022/11/03 03:07:49;;;;;;;7.93;4.73;;;;;;;16.99;54.31;95191.38;4928832;29;20221;-85
2022/11/03 03:10:17;;;;;;;9.00;5.07;;;;;;;17.05;54.29;95208.81;4921753;29;20242;-85
2022/11/03 03:12:49;;;;;;;9.40;5.17;;;;;;;16.87;54.24;95178.00;4919151;29;20192;-89
2022/11/03 03:15:18;;;;;;;7.97;5.07;;;;;;;17.03;54.35;95203.00;4918679;29;20215;-83
2022/11/03 03:17:50;;;;;;;10.03;5.37;;;;;;;16.99;54.43;95193.97;4920818;29;20202;-82
2022/11/03 03:20:23;;;;;;;8.77;4.87;;;;;;;16.97;54.26;95191.56;4928903;29;20224;-82
2022/11/03 03:22:55;;;;;;;8.83;5.70;;;;;;;17.02;54.29;95202.22;4932928;29;20200;-82
2022/11/03 03:25:26;;;;;;;7.17;5.23;;;;;;;17.01;54.31;95200.59;4924729;29;20679;-83
2022/11/03 03:28:01;;;;;;;8.27;5.10;;;;;;;17.02;54.40;95197.03;4924395;29;20203;-87
2022/11/03 03:30:30;;;;;;;10.93;5.57;;;;;;;17.02;54.51;95198.81;4921595;29;20745;-90
2022/11/03 03:32:59;;;;;;;8.00;5.03;;;;;;;17.01;54.60;95198.00;4919935;29;20226;-84
2022/11/03 03:35:30;;;;;;;8.10;4.70;;;;;;;16.95;54.53;95187.53;4929898;29;20206;-87
2022/11/03 03:38:02;;;;;;;9.67;5.17;;;;;;;16.74;54.47;95147.50;4932941;29;20191;-82
2022/11/03 03:40:34;;;;;;;6.97;4.80;;;;;;;16.87;54.58;95175.41;4931621;29;20668;-87
2022/11/03 03:43:06;;;;;;;6.07;5.00;;;;;;;16.97;54.85;95193.34;4923372;29;20196;-87
2022/11/03 03:45:34;;;;;;;8.60;5.23;;;;;;;16.69;54.69;95161.84;4918751;29;20211;-84
2022/11/03 03:48:07;;;;;;;6.63;4.77;;;;;;;16.89;54.73;95188.19;4918945;29;20295;-82
2022/11/03 03:50:38;;;;;;;7.67;5.10;;;;;;;16.83;54.91;95188.81;4918271;29;20731;-85
2022/11/03 03:53:06;;;;;;;6.67;4.87;;;;;;;16.87;54.89;95195.28;4917842;29;20192;-82
2022/11/03 03:55:36;;;;;;;7.50;4.53;;;;;;;16.71;54.96;95168.47;4919627;29;20199;-90
2022/11/03 03:58:05;;;;;;;8.53;5.37;;;;;;;16.85;54.95;95195.44;4920425;29;20270;-85
2022/11/03 04:00:32;;;;;;;10.17;5.30;;;;;;;16.86;54.85;95202.22;4918923;29;20656;-89
2022/11/03 04:02:59;;;;;;;10.63;5.57;;;;;;;16.77;54.79;95196.25;4917847;29;20199;-87
2022/11/03 04:05:27;;;;;;;7.93;5.00;;;;;;;16.73;55.23;95183.84;4917638;29;20200;-89
2022/11/03 04:07:54;;;;;;;8.07;5.23;;;;;;;16.54;55.19;95174.63;4917275;29;20207;-87
2022/11/03 04:10:22;;;;;;;6.63;5.13;;;;;;;16.70;55.31;95203.00;4917181;29;20196;-83
2022/11/03 04:23:53;;;;;;;9.53;5.40;;;;;;;16.56;55.65;95201.09;4919166;29;20187;-89
2022/11/03 04:26:22;;;;;;;14.23;5.23;;;;;;;16.48;55.71;95193.34;4917475;29;20199;-88
2022/11/03 04:28:51;;;;;;;13.03;6.10;;;;;;;16.52;55.86;95195.44;4921258;29;20200;-84
2022/11/03 04:34:12;;;;;;;10.33;5.30;;;;;;;16.38;55.71;95185.75;4930156;29;20227;-83
2022/11/03 04:36:39;;;;;;;9.97;5.40;;;;;;;16.42;55.65;95199.97;4921733;29;20252;-84
2022/11/03 04:39:16;;;;;;;9.13;6.20;;;;;;;16.40;56.02;95204.47;4916610;29;20203;-83
2022/11/03 04:41:43;;;;;;;9.87;5.70;;;;;;;16.36;56.18;95200.59;4896584;29;20216;-83
2022/11/03 04:44:14;;;;;;;11.10;5.97;;;;;;;16.34;56.26;95199.97;4896729;29;20607;-82
2022/11/03 04:46:45;;;;;;;9.07;5.77;;;;;;;16.23;56.36;95184.78;4897224;29;20227;-83
2022/11/03 04:49:16;;;;;;;7.63;5.80;;;;;;;16.28;56.35;95198.84;4909671;29;20299;-84
2022/11/03 04:51:44;;;;;;;10.47;5.97;;;;;;;16.16;56.41;95184.63;4915797;29;20207;-82
2022/11/03 04:54:16;;;;;;;8.50;5.53;;;;;;;15.83;56.26;95139.09;4916951;29;20286;-85
2022/11/03 04:56:43;;;;;;;8.80;5.40;;;;;;;15.94;56.45;95160.25;4917113;29;20207;-84
2022/11/03 04:59:12;;;;;;;12.17;6.40;;;;;;;16.10;56.54;95187.03;4916516;29;20195;-83
2022/11/03 05:01:40;;;;;;;7.97;5.10;;;;;;;15.97;56.42;95177.97;4921910;29;20200;-85
2022/11/03 05:04:13;;;;;;;9.30;5.77;;;;;;;16.13;56.61;95197.84;4923292;29;20291;-92
2022/11/03 05:06:41;;;;;;;11.67;5.87;;;;;;;16.07;56.65;95189.94;4922524;29;20191;-84
2022/11/03 05:09:15;;;;;;;11.87;6.27;;;;;;;16.10;56.75;95197.34;4922864;29;20202;-85
2022/11/03 05:14:39;;;;;;;11.40;5.57;;;;;;;16.10;56.77;95202.50;4922597;29;20283;-82
2022/11/03 05:17:20;;;;;;;9.10;6.00;;;;;;;15.86;56.42;95174.91;4916597;29;20624;-83
2022/11/03 05:19:48;;;;;;;10.77;5.57;;;;;;;15.86;56.61;95174.91;4901347;29;20286;-82
2022/11/03 05:22:18;;;;;;;10.87;6.43;;;;;;;15.94;56.75;95187.81;4920348;29;20228;-84
2022/11/03 05:24:45;;;;;;;10.33;6.00;;;;;;;15.77;56.89;95154.25;4919455;29;20247;-88
2022/11/03 05:27:18;;;;;;;13.60;6.50;;;;;;;16.15;56.63;95213.16;4919618;29;20350;-85
2022/11/03 05:29:46;;;;;;;9.87;6.43;;;;;;;16.10;56.75;95199.91;4918157;29;20198;-84
2022/11/03 05:32:16;;;;;;;7.40;5.63;;;;;;;16.22;56.61;95216.72;4917463;29;20240;-86
2022/11/03 05:34:46;;;;;;;11.23;6.27;;;;;;;16.27;56.72;95223.00;4917769;29;20202;-85
2022/11/03 05:37:28;;;;;;;6.83;5.00;;;;;;;16.32;56.74;95222.56;4902547;29;20929;-84
2022/11/03 05:39:58;;;;;;;12.10;5.80;;;;;;;16.39;56.48;95225.28;4917358;29;20646;-91
2022/11/03 05:42:31;;;;;;;13.47;6.17;;;;;;;16.39;56.48;95215.75;4910603;29;20208;-92
2022/11/03 05:45:00;;;;;;;8.20;5.70;;;;;;;16.51;56.41;95237.72;4898478;29;20688;-90
2022/11/03 05:47:31;;;;;;;12.00;6.07;;;;;;;16.51;56.46;95226.59;4901161;29;20193;-86
2022/11/03 05:50:11;;;;;;;12.13;6.00;;;;;;;16.69;56.30;95250.47;4898522;29;20200;-89
2022/11/03 05:52:44;;;;;;;17.97;6.20;;;;;;;16.54;56.23;95209.00;4901033;29;20232;-87
2022/11/03 05:55:24;;;;;;;11.63;5.77;;;;;;;16.71;56.19;95224.47;4899115;29;20204;-85
2022/11/03 05:57:51;;;;;;;10.37;5.97;;;;;;;16.98;55.82;95251.78;4896754;29;20232;-87
2022/11/03 06:00:28;;;;;;;5.80;4.53;;;;;;;17.21;82.24;95246.75;4895160;29;20727;-85
2022/11/03 06:02:57;;;;;;;10.70;4.83;;;;;;;17.56;86.13;95248.91;4902015;29;20203;-84
2022/11/03 06:05:26;;;;;;;9.43;5.20;;;;;;;18.00;86.69;95256.22;4896469;29;20684;-84
2022/11/03 06:07:58;;;;;;;9.03;4.83;;;;;;;18.42;86.10;95264.53;4895199;29;20196;-85
2022/11/03 06:10:28;;;;;;;16.30;5.27;;;;;;;18.78;85.77;95257.00;4895791;29;20200;-82
2022/11/03 06:13:01;;;;;;;12.77;5.37;;;;;;;19.26;82.63;95265.38;4895208;29;20243;-84
2022/11/03 06:15:31;;;;;;;16.20;5.90;;;;;;;19.72;81.47;95267.81;4910642;29;20477;-82
2022/11/03 06:17:59;;;;;;;12.03;5.43;;;;;;;20.13;79.63;95265.53;4914802;29;20207;-82
2022/11/03 06:20:27;;;;;;;8.03;5.10;;;;;;;20.51;78.08;95273.16;4917704;29;20199;-83
2022/11/03 06:22:56;;;;;;;8.80;5.07;;;;;;;20.79;76.48;95268.00;4917750;29;20200;-81
2022/11/03 06:25:29;;;;;;;14.40;5.90;;;;;;;21.13;75.19;95272.50;4920223;29;20669;-84
2022/11/03 06:28:01;;;;;;;19.10;5.93;;;;;;;21.58;73.68;95282.63;4924371;29;20202;-85
2022/11/03 06:30:31;;;;;;;9.25;5.65;;;;;;;21.86;72.60;95272.97;4912234;29;20204;-85
2022/11/03 06:33:00;;;;;;;10.70;5.55;;;;;;;22.30;71.01;95279.59;4908665;29;20234;-84
2022/11/03 06:35:27;;;;;;;13.07;5.18;;;;;;;22.66;69.89;95291.50;4907988;29;20195;-87
2022/11/03 06:37:58;;;;;;;15.52;6.28;;;;;;;22.99;68.50;95284.56;4906054;29;20262;-86
2022/11/03 06:40:34;;;;;;;13.35;6.95;;;;;;;23.39;66.97;95297.59;4908099;29;20192;-87
2022/11/03 06:43:13;;;;;;;17.50;6.45;;;;;;;23.53;66.04;95261.81;4911783;29;20195;-89
2022/11/03 06:45:50;;;;;;;11.95;6.53;;;;;;;24.05;64.76;95291.47;4921502;29;20574;-85
2022/11/03 06:48:24;;;;;;;13.98;6.45;;;;;;;24.33;63.68;95296.38;4920155;29;20240;-88
2022/11/03 06:50:50;;;;;;;9.43;5.88;;;;;;;24.45;62.61;95271.22;4918914;29;20224;-86
2022/11/03 06:53:24;;;;;;;11.05;6.10;;;;;;;24.67;62.07;95271.69;4920688;29;20200;-86
2022/11/03 06:55:51;;;;;;;15.63;7.00;;;;;;;24.91;61.29;95288.41;4921217;29;20652;-84
2022/11/03 06:58:26;;;;;;;10.05;6.43;;;;;;;25.15;60.29;95299.94;4921207;29;20225;-86
2022/11/03 07:00:55;;;;;;;17.35;6.65;;;;;;;25.23;59.52;95299.69;4921124;29;20197;-85
2022/11/03 07:03:26;;;;;;;11.60;6.43;;;;;;;25.26;58.97;95301.09;4922428;29;20211;-86
2022/11/03 07:05:57;;;;;;;11.93;6.10;;;;;;;25.28;58.49;95292.00;4935619;29;20206;-86
2022/11/03 07:08:30;;;;;;;13.77;7.03;;;;;;;25.35;58.49;95291.94;4940530;29;20180;-86
2022/11/03 07:11:01;;;;;;;14.63;7.10;;;;;;;25.41;57.69;95288.44;4939220;29;20195;-85
2022/11/03 07:13:29;;;;;;;11.70;6.97;;;;;;;25.49;57.36;95285.56;4938669;29;20219;-85
2022/11/03 07:15:56;;;;;;;14.70;7.57;;;;;;;25.58;56.93;95283.47;4938587;29;20214;-84
2022/11/03 07:18:25;;;;;;;10.82;7.07;;;;;;;25.66;56.48;95290.25;4937693;29;20192;-82
2022/11/03 07:20:54;;;;;;;12.40;7.80;;;;;;;25.68;56.10;95286.38;4936975;29;20247;-84
2022/11/03 07:23:25;;;;;;;14.55;8.32;;;;;;;25.65;55.40;95288.66;4934720;29;20192;-84
2022/11/03 07:25:56;;;;;;;13.32;7.10;;;;;;;25.67;55.36;95282.16;4937140;29;20267;-85
2022/11/03 07:28:26;;;;;;;15.10;8.35;;;;;;;25.72;54.96;95284.13;4936672;29;20192;-84
2022/11/03 07:30:53;;;;;;;12.13;7.63;;;;;;;25.74;54.79;95269.81;4936641;29;20192;-83
2022/11/03 07:33:22;;;;;;;15.00;7.13;;;;;;;25.93;54.73;95286.34;4936432;29;20235;-82
2022/11/03 07:35:50;;;;;;;12.10;7.30;;;;;;;26.10;54.38;95283.16;4936853;29;20569;-84
2022/11/03 07:38:19;;;;;;;14.93;7.00;;;;;;;26.22;53.83;95284.00;4936503;29;20267;-85
2022/11/03 07:40:47;;;;;;;12.55;8.13;;;;;;;26.30;54.07;95275.03;4935471;29;20273;-84
2022/11/03 07:43:22;;;;;;;10.75;6.88;;;;;;;26.38;53.22;95275.53;4931424;29;20198;-83
2022/11/03 07:45:50;;;;;;;13.45;8.20;;;;;;;26.39;53.13;95271.88;4931184;29;20219;-85
2022/11/03 07:48:22;;;;;;;15.30;8.50;;;;;;;26.37;52.91;95284.41;4927798;29;20199;-84
2022/11/03 07:50:51;;;;;;;13.88;9.02;;;;;;;26.19;53.02;95268.72;4921448;29;20203;-88
2022/11/03 07:53:31;;;;;;;13.65;8.25;;;;;;;26.18;53.06;95285.47;4918423;29;20227;-84
2022/11/03 07:55:59;;;;;;;12.00;8.90;;;;;;;26.08;53.26;95279.94;4923074;29;20195;-88
2022/11/03 07:58:34;;;;;;;12.65;8.02;;;;;;;25.97;53.69;95276.22;4925444;29;20211;-83
2022/11/03 08:01:04;;;;;;;17.80;9.20;;;;;;;26.07;53.34;95273.09;4917471;29;20203;-81
2022/11/03 08:03:44;;;;;;;13.52;8.73;;;;;;;26.94;51.21;95265.66;4918450;29;20219;-82
2022/11/03 08:06:11;;;;;;;16.30;8.90;;;;;;;27.39;50.32;95273.06;4908557;29;20219;-81
2022/11/03 08:08:38;;;;;;;17.80;8.50;;;;;;;27.40;49.94;95264.16;4916495;29;20255;-81
2022/11/03 08:11:05;;;;;;;12.90;8.45;;;;;;;26.75;50.12;95207.22;4920928;29;20554;-82
2022/11/03 08:13:34;;;;;;;13.60;8.70;;;;;;;26.80;50.67;95254.56;4918487;29;20216;-83
2022/11/03 08:16:00;;;;;;;13.18;8.82;;;;;;;26.49;50.83;95245.94;4913548;29;20723;-82
2022/11/03 08:18:27;;;;;;;10.68;8.63;;;;;;;26.30;50.79;95251.44;4911679;29;20204;-82
2022/11/03 08:20:54;;;;;;;13.70;7.90;;;;;;;26.09;51.12;95248.25;4914609;29;20747;-85
2022/11/03 08:23:21;;;;;;;12.95;9.63;;;;;;;25.96;51.18;95253.66;4909081;29;20211;-83
2022/11/03 08:25:48;;;;;;;16.02;9.77;;;;;;;25.51;50.93;95206.75;4907224;29;20184;-85
2022/11/03 08:28:15;;;;;;;14.77;8.70;;;;;;;25.65;51.03;95247.53;4909897;29;20204;-81
2022/11/03 08:30:43;;;;;;;16.90;8.70;;;;;;;25.54;51.56;95240.38;4916210;29;20204;-83
2022/11/03 08:33:10;;;;;;;12.43;8.00;;;;;;;25.44;52.50;95251.38;4909465;29;20235;-84
2022/11/03 08:35:37;;;;;;;15.95;8.55;;;;;;;25.34;52.75;95245.00;4911780;29;20189;-84
2022/11/03 08:38:04;;;;;;;14.95;9.35;;;;;;;25.21;52.77;95235.44;4901463;29;20275;-87
2022/11/03 08:40:31;;;;;;;13.45;8.88;;;;;;;25.15;52.93;95241.56;4905921;29;20196;-88
2022/11/03 08:42:59;;;;;;;13.25;9.32;;;;;;;25.07;53.24;95239.19;4905967;29;20192;-82
2022/11/03 08:45:26;;;;;;;14.68;9.32;;;;;;;24.82;52.92;95215.63;4903728;29;20275;-83
2022/11/03 08:47:54;;;;;;;20.40;8.98;;;;;;;24.78;53.11;95228.31;4903510;29;20278;-83
2022/11/03 08:50:22;;;;;;;14.27;8.80;;;;;;;24.77;53.15;95230.16;4907263;29;20204;-85
2022/11/03 08:52:49;;;;;;;17.77;10.18;;;;;;;24.70;53.64;95224.19;4906637;29;20319;-88
2022/11/03 08:55:17;;;;;;;17.17;9.50;;;;;;;24.52;53.83;95204.00;4907009;29;20204;-84
2022/11/03 08:57:44;;;;;;;14.60;9.38;;;;;;;24.61;53.88;95225.47;4906247;29;20304;-84
2022/11/03 09:00:12;;;;;;;14.27;9.65;;;;;;;24.65;54.22;95242.31;4905234;29;20210;-85
2022/11/03 09:02:39;;;;;;;14.13;9.25;;;;;;;24.61;54.23;95245.56;4903850;29;20270;-84
2022/11/03 09:05:11;;;;;;;13.43;9.20;;;;;;;24.55;54.47;95239.34;4903125;29;20206;-85
2022/11/03 09:07:38;;;;;;;12.57;9.25;;;;;;;24.42;54.59;95224.56;4903547;29;20204;-85
2022/11/03 09:10:06;;;;;;;12.13;9.13;;;;;;;24.49;54.42;95232.38;4897869;29;20557;-86
2022/11/03 09:12:33;;;;;;;16.92;9.40;;;;;;;24.46;54.13;95232.78;4904965;29;20231;-83
2022/11/03 09:15:00;;;;;;;14.02;9.25;;;;;;;24.44;54.70;95234.81;4898447;29;20192;-87
2022/11/03 09:17:27;;;;;;;12.50;9.05;;;;;;;24.27;54.60;95206.53;4911274;29;20229;-84
2022/11/03 09:19:55;;;;;;;12.65;9.07;;;;;;;24.40;54.50;95226.59;4908801;29;20204;-85
2022/11/03 09:22:23;;;;;;;12.90;9.65;;;;;;;24.38;54.59;95218.13;4901376;29;20256;-85
2022/11/03 09:24:50;;;;;;;12.93;9.07;;;;;;;24.25;54.85;95195.47;4905579;29;20204;-85
2022/11/03 09:27:17;;;;;;;15.82;9.30;;;;;;;24.32;54.72;95213.72;4904891;29;20196;-85
2022/11/03 09:29:44;;;;;;;13.70;8.80;;;;;;;24.01;54.16;95164.84;4909959;29;20288;-85
2022/11/03 09:32:10;;;;;;;11.90;9.07;;;;;;;24.29;54.45;95203.69;4897908;29;20711;-84
2022/11/03 09:34:37;;;;;;;14.40;8.73;;;;;;;24.27;54.81;95208.34;4897870;29;20192;-84
2022/11/03 09:37:04;;;;;;;11.73;8.73;;;;;;;24.27;54.71;95203.09;4904580;29;20212;-85
2022/11/03 09:39:33;;;;;;;14.32;9.38;;;;;;;24.26;54.86;95202.28;4900997;29;20356;-82
2022/11/03 09:42:02;;;;;;;12.45;8.90;;;;;;;24.27;54.99;95190.03;4898015;29;20200;-82
2022/11/03 09:44:32;;;;;;;15.35;8.75;;;;;;;24.27;55.37;95190.84;4909676;29;20200;-82
2022/11/03 09:46:59;;;;;;;14.55;8.05;;;;;;;24.29;55.12;95185.38;4903811;29;20634;-85
2022/11/03 09:49:27;;;;;;;15.07;8.27;;;;;;;24.30;55.41;95184.38;4899568;29;20207;-85
2022/11/03 09:51:55;;;;;;;11.13;7.93;;;;;;;24.23;55.60;95171.34;4898895;29;20207;-84
2022/11/03 09:54:23;;;;;;;13.27;8.38;;;;;;;24.33;55.96;95183.94;4902895;29;20252;-82
2022/11/03 09:56:51;;;;;;;12.25;8.70;;;;;;;24.35;55.92;95174.06;4907074;29;20690;-83
2022/11/03 09:59:19;;;;;;;12.40;9.15;;;;;;;24.26;55.81;95164.88;4912798;29;20215;-87
2022/11/03 10:01:49;;;;;;;13.77;9.00;;;;;;;24.28;55.36;95162.88;4902018;29;20297;-85
2022/11/03 10:04:20;;;;;;;13.43;8.55;;;;;;;24.34;55.21;95172.47;4900764;29;20208;-86
2022/11/03 10:06:46;;;;;;;12.50;8.20;;;;;;;24.34;55.52;95169.88;4902179;29;20227;-85
2022/11/03 10:09:17;;;;;;;9.90;8.10;;;;;;;24.35;55.84;95160.19;4904943;29;20199;-82
2022/11/03 10:11:46;;;;;;;13.98;8.75;;;;;;;24.34;55.98;95158.59;4904516;29;20725;-80
2022/11/03 10:14:17;;;;;;;11.98;8.60;;;;;;;24.33;55.81;95151.78;4902243;29;20240;-82
2022/11/03 10:16:53;;;;;;;13.15;8.75;;;;;;;24.23;55.80;95132.16;4904747;29;20196;-81
2022/11/03 10:19:20;;;;;;;11.75;8.30;;;;;;;24.32;56.24;95147.56;4902670;29;20216;-81
2022/11/03 10:21:47;;;;;;;17.83;8.50;;;;;;;24.24;55.82;95135.56;4911436;29;20234;-83
2022/11/03 10:24:14;;;;;;;13.05;8.40;;;;;;;24.28;56.14;95137.53;4921013;29;20680;-81
2022/11/03 10:26:46;;;;;;;13.70;9.13;;;;;;;24.28;56.13;95136.75;4925955;29;20218;-81
2022/11/03 10:29:20;;;;;;;12.15;8.60;;;;;;;24.18;56.27;95118.91;4916747;29;20237;-84
2022/11/03 10:31:50;;;;;;;11.88;8.00;;;;;;;24.25;56.24;95127.50;4917687;29;20214;-85
2022/11/03 10:34:41;;;;;;;13.35;7.82;;;;;;;24.26;56.28;95120.44;4918515;29;20227;-87
2022/11/03 10:37:19;;;;;;;11.30;7.78;;;;;;;24.20;56.16;95106.41;4852024;29;20267;-86
2022/11/03 10:39:46;;;;;;;10.65;7.53;;;;;;;24.17;56.24;95101.63;4843782;29;20212;-83
2022/11/03 10:42:24;;;;;;;10.82;8.00;;;;;;;24.27;55.95;95107.19;4851087;29;20202;-82
2022/11/03 10:44:54;;;;;;;14.10;8.55;;;;;;;24.25;56.22;95109.19;4848533;29;20693;-85
2022/11/03 10:47:31;;;;;;;13.23;7.97;;;;;;;24.18;55.79;95098.00;4846556;29;20269;-86
2022/11/03 10:49:58;;;;;;;10.75;7.38;;;;;;;24.22;55.90;95107.03;4839180;29;20223;-87
2022/11/03 10:52:28;;;;;;;12.00;8.13;;;;;;;24.24;55.76;95096.34;4848937;29;20217;-83
2022/11/03 10:54:58;;;;;;;11.02;8.05;;;;;;;24.03;56.14;95059.09;4846103;29;20523;-81
2022/11/03 10:57:26;;;;;;;13.18;7.75;;;;;;;24.15;55.62;95071.50;4856609;29;20225;-81
2022/11/03 10:59:56;;;;;;;8.43;6.90;;;;;;;24.00;55.56;95040.44;4850095;29;20202;-82
2022/11/03 11:02:25;;;;;;;10.20;7.30;;;;;;;24.21;55.48;95065.41;4851241;29;20217;-86
2022/11/03 11:04:58;;;;;;;8.93;7.35;;;;;;;24.15;55.49;95055.81;4854936;29;20210;-84
2022/11/03 11:07:35;;;;;;;12.10;8.13;;;;;;;24.25;55.99;95064.75;4858968;29;20646;-82
2022/11/03 11:10:07;;;;;;;11.88;7.30;;;;;;;24.26;56.16;95066.34;4841754;29;20203;-86
2022/11/03 11:12:34;;;;;;;13.52;7.45;;;;;;;24.26;55.95;95068.16;4849279;29;20226;-84
2022/11/03 11:15:25;;;;;;;9.90;7.35;;;;;;;24.17;55.85;95044.13;4916573;29;20207;-82
2022/11/03 11:17:52;;;;;;;9.88;6.90;;;;;;;24.28;55.43;95063.53;4919558;29;20210;-82
2022/11/03 11:20:37;;;;;;;14.25;7.55;;;;;;;24.22;55.36;95048.69;4928760;29;20287;-83
2022/11/03 11:23:46;;;;;;;10.52;7.05;;;;;;;24.29;54.79;95058.09;4913608;29;20212;-84
2022/11/03 11:26:16;;;;;;;9.43;7.38;;;;;;;24.28;55.00;95058.31;4914059;29;20199;-83
2022/11/03 11:45:06;;;;;;;8.48;6.18;;;;;;;24.62;53.42;95017.81;5031330;27;3072319;-83
2022/11/03 11:47:46;;;;;;;10.52;6.47;;;;;;;24.58;53.78;95021.88;5111316;28;20189;-84
2022/11/03 11:50:30;;;;;;;9.85;6.53;;;;;;;24.51;53.83;95016.69;5111167;28;20203;-83
2022/11/03 11:53:09;;;;;;;10.88;6.63;;;;;;;24.04;53.90;94947.53;5110067;28;20185;-83
2022/11/03 11:55:41;;;;;;;8.50;5.60;;;;;;;24.41;54.04;95005.94;5106079;28;20679;-85
2022/11/03 11:58:17;;;;;;;8.63;6.70;;;;;;;24.38;53.86;95006.38;5098171;28;20213;-85
2022/11/03 12:01:00;;;;;;;7.88;5.90;;;;;;;24.35;53.88;95011.19;5109763;28;20674;-82
2022/11/03 12:03:39;;;;;;;10.57;5.88;;;;;;;24.16;54.07;94977.19;5108622;28;20224;-81
2022/11/03 12:06:08;;;;;;;8.40;6.15;;;;;;;24.04;54.04;94950.94;5107907;28;20287;-82
2022/11/03 12:08:35;;;;;;;11.15;6.28;;;;;;;24.19;54.01;94979.38;5096377;28;20201;-82
2022/11/03 12:11:04;;;;;;;8.57;5.80;;;;;;;24.22;53.95;94978.13;5107683;28;20186;-83
2022/11/03 12:13:46;;;;;;;8.43;6.63;;;;;;;24.24;53.83;94989.97;5107351;28;20186;-81
2022/11/03 12:16:30;;;;;;;8.93;6.40;;;;;;;24.22;53.69;94985.97;5107583;28;20181;-81
2022/11/03 12:18:57;;;;;;;10.40;5.65;;;;;;;24.21;53.83;94989.59;5104913;28;20193;-81
2022/11/03 12:21:47;;;;;;;8.18;5.72;;;;;;;24.19;54.11;94978.56;5116269;28;20189;-82